Afton, Texas
Current Conditions -  °F | °C
As of 11:31 AM on Friday 19 Dec 2014 (Local Time) from KCDS Reporting Station
Overcast Overcast  
Wind Chill:   Ceiling: 1000
Heat Index:   Visibility: 10mi
Dew Point:   Wind: 0mph
Humidity: 86%   Direction: NA
Pressure: 30.24"   Gusts: NA
Location:  33.76°N, 100.82°W
Report Text: KCDS 191731Z AUTO 00000KT 10SM OVC010 05/03 A3024 RMK AO2 T00500028
Loading
Personal Weather Stations






























Interactive Weather Map New forecast layout! Learn more

10-Day Weather Forecast

Advertisements
Track Severe Weather on mobile